sensor_id;sensor_type;location;lat;lon;timestamp;pressure;altitude;pressure_sealevel;temperature
20490;BMP280;10403;54.092;12.122;2024-03-23T00:53:12;100913.47;;;9.47
20490;BMP280;10403;54.092;12.122;2024-03-23T00:55:42;100906.53;;;9.46
20490;BMP280;10403;54.092;12.122;2024-03-23T00:58:08;100893.53;;;9.40
20490;BMP280;10403;54.092;12.122;2024-03-23T01:00:35;100904.78;;;9.42
20490;BMP280;10403;54.092;12.122;2024-03-23T01:03:01;100898.69;;;9.41
20490;BMP280;10403;54.092;12.122;2024-03-23T01:05:28;100891.75;;;9.42
20490;BMP280;10403;54.092;12.122;2024-03-23T01:07:54;100868.31;;;9.34
20490;BMP280;10403;54.092;12.122;2024-03-23T01:10:20;100886.50;;;9.42
20490;BMP280;10403;54.092;12.122;2024-03-23T01:12:46;100877.84;;;9.38
20490;BMP280;10403;54.092;12.122;2024-03-23T01:15:13;100880.47;;;9.40
20490;BMP280;10403;54.092;12.122;2024-03-23T01:17:39;100878.69;;;9.40
20490;BMP280;10403;54.092;12.122;2024-03-23T01:20:06;100867.44;;;9.34
20490;BMP280;10403;54.092;12.122;2024-03-23T01:22:32;100876.97;;;9.39
20490;BMP280;10403;54.092;12.122;2024-03-23T01:24:59;100866.56;;;9.33
20490;BMP280;10403;54.092;12.122;2024-03-23T01:27:25;100837.09;;;9.17
20490;BMP280;10403;54.092;12.122;2024-03-23T01:29:51;100870.91;;;9.39
20490;BMP280;10403;54.092;12.122;2024-03-23T01:32:18;100863.06;;;9.39
20490;BMP280;10403;54.092;12.122;2024-03-23T01:34:46;100863.06;;;9.37
20490;BMP280;10403;54.092;12.122;2024-03-23T01:37:12;100857.00;;;9.34
20490;BMP280;10403;54.092;12.122;2024-03-23T01:39:38;100860.47;;;9.37
20490;BMP280;10403;54.092;12.122;2024-03-23T01:42:05;100861.34;;;9.36
20490;BMP280;10403;54.092;12.122;2024-03-23T01:44:31;100857.84;;;9.34
20490;BMP280;10403;54.092;12.122;2024-03-23T01:46:57;100856.13;;;9.33
20490;BMP280;10403;54.092;12.122;2024-03-23T01:49:24;100843.94;;;9.32
20490;BMP280;10403;54.092;12.122;2024-03-23T01:51:51;100843.06;;;9.32
20490;BMP280;10403;54.092;12.122;2024-03-23T01:54:17;100840.50;;;9.27
20490;BMP280;10403;54.092;12.122;2024-03-23T01:56:44;100845.72;;;9.30
20490;BMP280;10403;54.092;12.122;2024-03-23T01:59:10;100837.91;;;9.28
20490;BMP280;10403;54.092;12.122;2024-03-23T02:01:36;100837.03;;;9.28
20490;BMP280;10403;54.092;12.122;2024-03-23T02:04:03;100841.38;;;9.27
20490;BMP280;10403;54.092;12.122;2024-03-23T02:06:29;100834.44;;;9.26
20490;BMP280;10403;54.092;12.122;2024-03-23T02:08:56;100811.00;;;9.20
20490;BMP280;10403;54.092;12.122;2024-03-23T02:11:22;100807.50;;;9.20
20490;BMP280;10403;54.092;12.122;2024-03-23T02:13:49;100806.66;;;9.16
20490;BMP280;10403;54.092;12.122;2024-03-23T02:16:15;100821.41;;;9.22
20490;BMP280;10403;54.092;12.122;2024-03-23T02:18:41;100810.97;;;9.22
20490;BMP280;10403;54.092;12.122;2024-03-23T02:21:08;100813.59;;;9.20
20490;BMP280;10403;54.092;12.122;2024-03-23T02:23:34;100819.69;;;9.19
20490;BMP280;10403;54.092;12.122;2024-03-23T02:26:03;100807.53;;;9.18
20490;BMP280;10403;54.092;12.122;2024-03-23T02:28:30;100797.97;;;9.14
20490;BMP280;10403;54.092;12.122;2024-03-23T02:30:56;100807.53;;;9.14
20490;BMP280;10403;54.092;12.122;2024-03-23T02:33:24;100805.00;;;9.05
20490;BMP280;10403;54.092;12.122;2024-03-23T02:35:55;100811.94;;;9.10
20490;BMP280;10403;54.092;12.122;2024-03-23T02:38:22;100807.56;;;9.11
20490;BMP280;10403;54.092;12.122;2024-03-23T02:40:49;100791.09;;;9.04
20490;BMP280;10403;54.092;12.122;2024-03-23T02:43:15;100796.28;;;9.07
20490;BMP280;10403;54.092;12.122;2024-03-23T02:45:42;100799.78;;;9.05
20490;BMP280;10403;54.092;12.122;2024-03-23T02:48:09;100788.47;;;9.03
20490;BMP280;10403;54.092;12.122;2024-03-23T02:50:35;100785.00;;;9.02
20490;BMP280;10403;54.092;12.122;2024-03-23T02:53:02;100788.53;;;9.00
20490;BMP280;10403;54.092;12.122;2024-03-23T02:55:29;100777.22;;;8.99
20490;BMP280;10403;54.092;12.122;2024-03-23T02:57:55;100769.41;;;8.99
20490;BMP280;10403;54.092;12.122;2024-03-23T03:00:21;100766.78;;;8.98
20490;BMP280;10403;54.092;12.122;2024-03-23T03:02:48;100782.44;;;8.96
20490;BMP280;10403;54.092;12.122;2024-03-23T03:05:14;100773.75;;;8.96
20490;BMP280;10403;54.092;12.122;2024-03-23T03:07:40;100767.69;;;8.94
20490;BMP280;10403;54.092;12.122;2024-03-23T03:10:07;100766.81;;;8.93
20490;BMP280;10403;54.092;12.122;2024-03-23T03:12:37;100759.03;;;8.87
20490;BMP280;10403;54.092;12.122;2024-03-23T03:15:08;100755.56;;;8.89
20490;BMP280;10403;54.092;12.122;2024-03-23T03:17:35;100756.41;;;8.90
20490;BMP280;10403;54.092;12.122;2024-03-23T03:20:01;100759.91;;;8.89
20490;BMP280;10403;54.092;12.122;2024-03-23T03:22:28;100752.06;;;8.87
20490;BMP280;10403;54.092;12.122;2024-03-23T03:24:55;100746.00;;;8.85
20490;BMP280;10403;54.092;12.122;2024-03-23T03:27:21;100739.06;;;8.84
20490;BMP280;10403;54.092;12.122;2024-03-23T03:29:48;100731.25;;;8.81
20490;BMP280;10403;54.092;12.122;2024-03-23T03:32:14;100737.34;;;8.80
20490;BMP280;10403;54.092;12.122;2024-03-23T03:34:41;100746.06;;;8.78
20490;BMP280;10403;54.092;12.122;2024-03-23T03:37:07;100739.13;;;8.72
20490;BMP280;10403;54.092;12.122;2024-03-23T03:39:33;100746.94;;;8.75
20490;BMP280;10403;54.092;12.122;2024-03-23T03:41:59;100739.13;;;8.74
20490;BMP280;10403;54.092;12.122;2024-03-23T03:44:27;100736.53;;;8.72
20490;BMP280;10403;54.092;12.122;2024-03-23T03:46:54;100708.81;;;8.61
20490;BMP280;10403;54.092;12.122;2024-03-23T03:49:20;100714.84;;;8.66
20490;BMP280;10403;54.092;12.122;2024-03-23T03:51:46;100718.31;;;8.66
20490;BMP280;10403;54.092;12.122;2024-03-23T03:54:12;100724.41;;;8.65
20490;BMP280;10403;54.092;12.122;2024-03-23T03:56:38;100720.94;;;8.63
20490;BMP280;10403;54.092;12.122;2024-03-23T03:59:05;100714.91;;;8.60
20490;BMP280;10403;54.092;12.122;2024-03-23T04:01:31;100716.63;;;8.58
20490;BMP280;10403;54.092;12.122;2024-03-23T04:03:58;100690.63;;;8.48
20490;BMP280;10403;54.092;12.122;2024-03-23T04:06:24;100714.91;;;8.57
20490;BMP280;10403;54.092;12.122;2024-03-23T04:08:50;100710.56;;;8.54
20490;BMP280;10403;54.092;12.122;2024-03-23T04:11:16;100693.22;;;8.50
20490;BMP280;10403;54.092;12.122;2024-03-23T04:13:43;100698.44;;;8.51
20490;BMP280;10403;54.092;12.122;2024-03-23T04:16:09;100689.75;;;8.51
20490;BMP280;10403;54.092;12.122;2024-03-23T04:18:35;100692.38;;;8.49
20490;BMP280;10403;54.092;12.122;2024-03-23T04:21:02;100677.59;;;8.45
20490;BMP280;10403;54.092;12.122;2024-03-23T04:23:28;100677.59;;;8.47
20490;BMP280;10403;54.092;12.122;2024-03-23T04:25:55;100681.09;;;8.43
20490;BMP280;10403;54.092;12.122;2024-03-23T04:28:21;100669.84;;;8.36
20490;BMP280;10403;54.092;12.122;2024-03-23T04:30:48;100675.03;;;8.39
20490;BMP280;10403;54.092;12.122;2024-03-23T04:33:15;100671.59;;;8.37
20490;BMP280;10403;54.092;12.122;2024-03-23T04:35:41;100671.59;;;8.37
20490;BMP280;10403;54.092;12.122;2024-03-23T04:38:07;100675.06;;;8.36
20490;BMP280;10403;54.092;12.122;2024-03-23T04:40:33;100672.47;;;8.35
20490;BMP280;10403;54.092;12.122;2024-03-23T04:43:00;100671.59;;;8.34
20490;BMP280;10403;54.092;12.122;2024-03-23T04:45:27;100664.63;;;8.36
20490;BMP280;10403;54.092;12.122;2024-03-23T04:47:53;100668.09;;;8.35
20490;BMP280;10403;54.092;12.122;2024-03-23T04:50:19;100664.63;;;8.35
20490;BMP280;10403;54.092;12.122;2024-03-23T04:52:47;100666.38;;;8.34
20490;BMP280;10403;54.092;12.122;2024-03-23T04:55:13;100668.97;;;8.34
20490;BMP280;10403;54.092;12.122;2024-03-23T04:57:40;100659.44;;;8.33
20490;BMP280;10403;54.092;12.122;2024-03-23T05:00:07;100664.66;;;8.33
20490;BMP280;10403;54.092;12.122;2024-03-23T05:02:44;100661.16;;;8.34
20490;BMP280;10403;54.092;12.122;2024-03-23T05:05:12;100666.38;;;8.33
20490;BMP280;10403;54.092;12.122;2024-03-23T05:07:38;100664.66;;;8.33
20490;BMP280;10403;54.092;12.122;2024-03-23T05:10:05;100647.28;;;8.23
20490;BMP280;10403;54.092;12.122;2024-03-23T05:12:31;100668.97;;;8.34
20490;BMP280;10403;54.092;12.122;2024-03-23T05:14:58;100655.94;;;8.34
20490;BMP280;10403;54.092;12.122;2024-03-23T05:17:24;100654.22;;;8.30
20490;BMP280;10403;54.092;12.122;2024-03-23T05:19:50;100652.50;;;8.32
20490;BMP280;10403;54.092;12.122;2024-03-23T05:22:17;100649.88;;;8.35
20490;BMP280;10403;54.092;12.122;2024-03-23T05:24:45;100652.47;;;8.35
20490;BMP280;10403;54.092;12.122;2024-03-23T05:27:12;100646.38;;;8.36
20490;BMP280;10403;54.092;12.122;2024-03-23T05:29:38;100645.53;;;8.34
20490;BMP280;10403;54.092;12.122;2024-03-23T05:32:05;100650.75;;;8.34
20490;BMP280;10403;54.092;12.122;2024-03-23T05:34:31;100655.09;;;8.35
20490;BMP280;10403;54.092;12.122;2024-03-23T05:36:57;100667.22;;;8.38
20490;BMP280;10403;54.092;12.122;2024-03-23T05:39:23;100668.97;;;8.37
20490;BMP280;10403;54.092;12.122;2024-03-23T05:41:50;100670.72;;;8.38
20490;BMP280;10403;54.092;12.122;2024-03-23T05:44:17;100662.03;;;8.36
20490;BMP280;10403;54.092;12.122;2024-03-23T05:46:43;100663.78;;;8.34
20490;BMP280;10403;54.092;12.122;2024-03-23T05:49:16;100666.38;;;8.34
20490;BMP280;10403;54.092;12.122;2024-03-23T05:51:43;100662.94;;;8.32
20490;BMP280;10403;54.092;12.122;2024-03-23T05:54:09;100645.56;;;8.27
20490;BMP280;10403;54.092;12.122;2024-03-23T05:56:36;100649.88;;;8.34
20490;BMP280;10403;54.092;12.122;2024-03-23T05:59:02;100642.03;;;8.35
20490;BMP280;10403;54.092;12.122;2024-03-23T06:01:29;100646.38;;;8.36
20490;BMP280;10403;54.092;12.122;2024-03-23T06:03:58;100642.03;;;8.37
20490;BMP280;10403;54.092;12.122;2024-03-23T06:06:25;100650.72;;;8.40
20490;BMP280;10403;54.092;12.122;2024-03-23T06:08:52;100649.81;;;8.43
20490;BMP280;10403;54.092;12.122;2024-03-23T06:11:18;100642.84;;;8.43
20490;BMP280;10403;54.092;12.122;2024-03-23T06:13:44;100648.06;;;8.45
20490;BMP280;10403;54.092;12.122;2024-03-23T06:16:10;100637.69;;;8.40
20490;BMP280;10403;54.092;12.122;2024-03-23T06:18:36;100652.41;;;8.46
20490;BMP280;10403;54.092;12.122;2024-03-23T06:21:03;100661.97;;;8.47
20490;BMP280;10403;54.092;12.122;2024-03-23T06:23:29;100660.22;;;8.46
20490;BMP280;10403;54.092;12.122;2024-03-23T06:25:56;100658.47;;;8.48
20490;BMP280;10403;54.092;12.122;2024-03-23T06:28:22;100647.16;;;8.50
20490;BMP280;10403;54.092;12.122;2024-03-23T06:30:49;100646.31;;;8.51
20490;BMP280;10403;54.092;12.122;2024-03-23T06:33:16;100651.47;;;8.53
20490;BMP280;10403;54.092;12.122;2024-03-23T06:35:42;100648.84;;;8.54
20490;BMP280;10403;54.092;12.122;2024-03-23T06:38:08;100645.38;;;8.60
20490;BMP280;10403;54.092;12.122;2024-03-23T06:40:36;100624.53;;;8.56
20490;BMP280;10403;54.092;12.122;2024-03-23T06:43:02;100640.09;;;8.66
20490;BMP280;10403;54.092;12.122;2024-03-23T06:45:28;100634.00;;;8.69
20490;BMP280;10403;54.092;12.122;2024-03-23T06:47:55;100617.41;;;8.73
20490;BMP280;10403;54.092;12.122;2024-03-23T06:50:23;100620.91;;;8.73
20490;BMP280;10403;54.092;12.122;2024-03-23T06:52:50;100605.31;;;8.69
20490;BMP280;10403;54.092;12.122;2024-03-23T06:55:16;100605.22;;;8.78
20490;BMP280;10403;54.092;12.122;2024-03-23T06:57:42;100613.84;;;8.83
20490;BMP280;10403;54.092;12.122;2024-03-23T07:00:09;100618.19;;;8.85
20490;BMP280;10403;54.092;12.122;2024-03-23T07:02:36;100615.56;;;8.87
20490;BMP280;10403;54.092;12.122;2024-03-23T07:05:02;100598.19;;;8.87
20490;BMP280;10403;54.092;12.122;2024-03-23T07:07:29;100595.56;;;8.87
20490;BMP280;10403;54.092;12.122;2024-03-23T07:09:56;100596.38;;;8.94
20490;BMP280;10403;54.092;12.122;2024-03-23T07:12:22;100597.22;;;8.96
20490;BMP280;10403;54.092;12.122;2024-03-23T07:14:48;100589.38;;;8.99
20490;BMP280;10403;54.092;12.122;2024-03-23T07:17:16;100591.09;;;9.00
20490;BMP280;10403;54.092;12.122;2024-03-23T07:19:44;100594.50;;;9.05
20490;BMP280;10403;54.092;12.122;2024-03-23T07:22:10;100598.84;;;9.08
20490;BMP280;10403;54.092;12.122;2024-03-23T07:24:36;100609.22;;;9.12
20490;BMP280;10403;54.092;12.122;2024-03-23T07:27:05;100608.34;;;9.12
20490;BMP280;10403;54.092;12.122;2024-03-23T07:29:31;100612.69;;;9.14
20490;BMP280;10403;54.092;12.122;2024-03-23T07:31:57;100604.84;;;9.14
20490;BMP280;10403;54.092;12.122;2024-03-23T07:34:24;100611.81;;;9.15
20490;BMP280;10403;54.092;12.122;2024-03-23T07:36:50;100611.81;;;9.14
20490;BMP280;10403;54.092;12.122;2024-03-23T07:39:16;100607.47;;;9.13
20490;BMP280;10403;54.092;12.122;2024-03-23T07:41:45;100595.34;;;9.10
20490;BMP280;10403;54.092;12.122;2024-03-23T07:44:11;100598.78;;;9.12
20490;BMP280;10403;54.092;12.122;2024-03-23T07:46:37;100601.34;;;9.18
20490;BMP280;10403;54.092;12.122;2024-03-23T07:49:07;100599.53;;;9.23
20490;BMP280;10403;54.092;12.122;2024-03-23T07:51:33;100599.53;;;9.25
20490;BMP280;10403;54.092;12.122;2024-03-23T07:54:01;100592.47;;;9.32
20490;BMP280;10403;54.092;12.122;2024-03-23T07:56:27;100588.13;;;9.34
20490;BMP280;10403;54.092;12.122;2024-03-23T07:58:53;100596.78;;;9.36
20490;BMP280;10403;54.092;12.122;2024-03-23T08:01:19;100587.16;;;9.41
20490;BMP280;10403;54.092;12.122;2024-03-23T08:03:46;100585.38;;;9.43
20490;BMP280;10403;54.092;12.122;2024-03-23T08:06:15;100583.66;;;9.42
20490;BMP280;10403;54.092;12.122;2024-03-23T08:08:47;100585.41;;;9.41
20490;BMP280;10403;54.092;12.122;2024-03-23T08:11:13;100576.69;;;9.44
20490;BMP280;10403;54.092;12.122;2024-03-23T08:13:41;100576.63;;;9.50
20490;BMP280;10403;54.092;12.122;2024-03-23T08:16:08;100573.94;;;9.56
20490;BMP280;10403;54.092;12.122;2024-03-23T08:18:34;100577.31;;;9.62
20490;BMP280;10403;54.092;12.122;2024-03-23T08:21:04;100572.91;;;9.66
20490;BMP280;10403;54.092;12.122;2024-03-23T08:23:35;100567.69;;;9.68
20490;BMP280;10403;54.092;12.122;2024-03-23T08:26:13;100560.66;;;9.71
20490;BMP280;10403;54.092;12.122;2024-03-23T08:28:39;100556.31;;;9.70
20490;BMP280;10403;54.092;12.122;2024-03-23T08:31:11;100563.25;;;9.71
20490;BMP280;10403;54.092;12.122;2024-03-23T08:33:38;100555.41;;;9.74
20490;BMP280;10403;54.092;12.122;2024-03-23T08:36:07;100550.19;;;9.74
20490;BMP280;10403;54.092;12.122;2024-03-23T08:38:34;100551.03;;;9.75
20490;BMP280;10403;54.092;12.122;2024-03-23T08:43:29;100555.13;;;9.92
20490;BMP280;10403;54.092;12.122;2024-03-23T08:46:06;100544.63;;;9.97
20490;BMP280;10403;54.092;12.122;2024-03-23T08:48:39;100543.69;;;10.01
20490;BMP280;10403;54.092;12.122;2024-03-23T08:51:07;100547.03;;;10.11
20490;BMP280;10403;54.092;12.122;2024-03-23T08:53:35;100544.31;;;10.17
20490;BMP280;10403;54.092;12.122;2024-03-23T08:56:03;100532.13;;;10.16
20490;BMP280;10403;54.092;12.122;2024-03-23T08:58:31;100533.78;;;10.24
20490;BMP280;10403;54.092;12.122;2024-03-23T09:01:11;100538.09;;;10.27
20490;BMP280;10403;54.092;12.122;2024-03-23T09:03:39;100535.50;;;10.27
20490;BMP280;10403;54.092;12.122;2024-03-23T09:06:11;100530.28;;;10.25
20490;BMP280;10403;54.092;12.122;2024-03-23T09:08:38;100534.63;;;10.25
20490;BMP280;10403;54.092;12.122;2024-03-23T09:11:07;100525.06;;;10.24
20490;BMP280;10403;54.092;12.122;2024-03-23T09:13:34;100529.47;;;10.20
20490;BMP280;10403;54.092;12.122;2024-03-23T09:16:01;100536.41;;;10.23
20490;BMP280;10403;54.092;12.122;2024-03-23T09:18:34;100528.59;;;10.20
20490;BMP280;10403;54.092;12.122;2024-03-23T09:21:10;100533.88;;;10.17
20490;BMP280;10403;54.092;12.122;2024-03-23T09:23:37;100534.78;;;10.13
20490;BMP280;10403;54.092;12.122;2024-03-23T09:26:04;100533.00;;;10.16
20490;BMP280;10403;54.092;12.122;2024-03-23T09:28:31;100533.88;;;10.17
20490;BMP280;10403;54.092;12.122;2024-03-23T09:33:31;100519.84;;;10.24
20490;BMP280;10403;54.092;12.122;2024-03-23T09:35:57;100517.19;;;10.27
20490;BMP280;10403;54.092;12.122;2024-03-23T09:38:24;100511.03;;;10.29
20490;BMP280;10403;54.092;12.122;2024-03-23T09:40:53;100514.47;;;10.33
20490;BMP280;10403;54.092;12.122;2024-03-23T09:43:20;100513.56;;;10.34
20490;BMP280;10403;54.092;12.122;2024-03-23T09:45:46;100460.72;;;10.14
20490;BMP280;10403;54.092;12.122;2024-03-23T09:48:13;100502.19;;;10.38
20490;BMP280;10403;54.092;12.122;2024-03-23T09:50:40;100496.88;;;10.41
20490;BMP280;10403;54.092;12.122;2024-03-23T09:53:08;100491.59;;;10.46
20490;BMP280;10403;54.092;12.122;2024-03-23T09:55:35;100482.00;;;10.45
20490;BMP280;10403;54.092;12.122;2024-03-23T09:58:03;100478.53;;;10.44
20490;BMP280;10403;54.092;12.122;2024-03-23T10:00:35;100494.09;;;10.50
20490;BMP280;10403;54.092;12.122;2024-03-23T10:03:02;100483.63;;;10.50
20490;BMP280;10403;54.092;12.122;2024-03-23T10:05:29;100481.03;;;10.50
20490;BMP280;10403;54.092;12.122;2024-03-23T10:07:57;100476.66;;;10.51
20490;BMP280;10403;54.092;12.122;2024-03-23T10:10:25;100461.97;;;10.45
20490;BMP280;10403;54.092;12.122;2024-03-23T10:12:52;100488.84;;;10.52
20490;BMP280;10403;54.092;12.122;2024-03-23T10:15:24;100461.13;;;10.43
20490;BMP280;10403;54.092;12.122;2024-03-23T10:17:52;100471.44;;;10.51
20490;BMP280;10403;54.092;12.122;2024-03-23T10:20:23;100473.13;;;10.53
20490;BMP280;10403;54.092;12.122;2024-03-23T10:22:50;100464.38;;;10.56
20490;BMP280;10403;54.092;12.122;2024-03-23T10:25:25;100463.22;;;10.70
20490;BMP280;10403;54.092;12.122;2024-03-23T10:28:00;100466.53;;;10.79
20490;BMP280;10403;54.092;12.122;2024-03-23T10:30:29;100465.56;;;10.86
20490;BMP280;10403;54.092;12.122;2024-03-23T10:33:11;100464.56;;;10.91
20490;BMP280;10403;54.092;12.122;2024-03-23T10:35:38;100464.47;;;10.96
20490;BMP280;10403;54.092;12.122;2024-03-23T10:38:07;100469.56;;;11.02
20490;BMP280;10403;54.092;12.122;2024-03-23T10:40:35;100461.56;;;11.09
20490;BMP280;10403;54.092;12.122;2024-03-23T10:43:03;100455.34;;;11.15
20490;BMP280;10403;54.092;12.122;2024-03-23T10:45:30;100458.66;;;11.23
20490;BMP280;10403;54.092;12.122;2024-03-23T10:47:57;100456.94;;;11.22
20490;BMP280;10403;54.092;12.122;2024-03-23T10:50:23;100465.69;;;11.21
20490;BMP280;10403;54.092;12.122;2024-03-23T10:52:53;100454.41;;;11.18
20490;BMP280;10403;54.092;12.122;2024-03-23T10:55:22;100454.50;;;11.15
20490;BMP280;10403;54.092;12.122;2024-03-23T10:57:54;100444.09;;;11.10
20490;BMP280;10403;54.092;12.122;2024-03-23T11:00:20;100446.59;;;11.16
20490;BMP280;10403;54.092;12.122;2024-03-23T11:02:48;100439.50;;;11.21
20490;BMP280;10403;54.092;12.122;2024-03-23T11:05:29;100441.09;;;11.28
20490;BMP280;10403;54.092;12.122;2024-03-23T11:07:56;100439.22;;;11.35
20490;BMP280;10403;54.092;12.122;2024-03-23T11:10:31;100431.25;;;11.38
20490;BMP280;10403;54.092;12.122;2024-03-23T11:13:22;100426.03;;;11.38
20490;BMP280;10403;54.092;12.122;2024-03-23T11:15:49;100440.97;;;11.34
20490;BMP280;10403;54.092;12.122;2024-03-23T11:18:21;100419.31;;;11.26
20490;BMP280;10403;54.092;12.122;2024-03-23T11:20:47;100429.06;;;11.20
20490;BMP280;10403;54.092;12.122;2024-03-23T11:23:28;100421.38;;;11.12
20490;BMP280;10403;54.092;12.122;2024-03-23T11:25:54;100431.72;;;11.17
20490;BMP280;10403;54.092;12.122;2024-03-23T11:28:21;100421.25;;;11.17
20490;BMP280;10403;54.092;12.122;2024-03-23T11:30:47;100416.97;;;11.14
20490;BMP280;10403;54.092;12.122;2024-03-23T11:33:15;100406.72;;;11.05
20490;BMP280;10403;54.092;12.122;2024-03-23T11:35:42;100416.41;;;11.00
20490;BMP280;10403;54.092;12.122;2024-03-23T11:38:17;100413.72;;;11.03
20490;BMP280;10403;54.092;12.122;2024-03-23T11:40:50;100408.50;;;11.01
20490;BMP280;10403;54.092;12.122;2024-03-23T11:43:20;100401.31;;;11.11
20490;BMP280;10403;54.092;12.122;2024-03-23T11:45:52;100406.41;;;11.17
20490;BMP280;10403;54.092;12.122;2024-03-23T11:48:21;100412.47;;;11.21
20490;BMP280;10403;54.092;12.122;2024-03-23T11:50:56;100413.31;;;11.21
20490;BMP280;10403;54.092;12.122;2024-03-23T11:53:25;100420.28;;;11.22
20490;BMP280;10403;54.092;12.122;2024-03-23T11:55:59;100442.78;;;11.31
20490;BMP280;10403;54.092;12.122;2024-03-23T11:58:27;100442.69;;;11.35
20490;BMP280;10403;54.092;12.122;2024-03-23T12:01:04;100470.75;;;11.29
20490;BMP280;10403;54.092;12.122;2024-03-23T12:03:33;100479.03;;;11.09
20490;BMP280;10403;54.092;12.122;2024-03-23T12:06:03;100447.16;;;10.89
20490;BMP280;10403;54.092;12.122;2024-03-23T12:08:32;100448.34;;;10.74
20490;BMP280;10403;54.092;12.122;2024-03-23T12:13:40;100433.72;;;10.62
20490;BMP280;10403;54.092;12.122;2024-03-23T12:16:16;100446.88;;;10.58
20490;BMP280;10403;54.092;12.122;2024-03-23T12:18:49;100447.91;;;10.49
20490;BMP280;10403;54.092;12.122;2024-03-23T12:21:15;100451.53;;;10.42
20490;BMP280;10403;54.092;12.122;2024-03-23T12:23:44;100463.72;;;10.43
20490;BMP280;10403;54.092;12.122;2024-03-23T12:26:11;100462.88;;;10.41
20490;BMP280;10403;54.092;12.122;2024-03-23T12:28:38;100455.03;;;10.41
20490;BMP280;10403;54.092;12.122;2024-03-23T12:31:05;100440.22;;;10.42
20490;BMP280;10403;54.092;12.122;2024-03-23T12:33:32;100432.22;;;10.49
20490;BMP280;10403;54.092;12.122;2024-03-23T12:35:58;100432.16;;;10.54
20490;BMP280;10403;54.092;12.122;2024-03-23T12:38:25;100419.06;;;10.54
20490;BMP280;10403;54.092;12.122;2024-03-23T12:40:51;100443.31;;;10.62
20490;BMP280;10403;54.092;12.122;2024-03-23T12:43:17;100465.13;;;10.62
20490;BMP280;10403;54.092;12.122;2024-03-23T12:45:48;100472.22;;;10.56
20490;BMP280;10403;54.092;12.122;2024-03-23T12:48:16;100448.88;;;10.47
20490;BMP280;10403;54.092;12.122;2024-03-23T12:50:42;100441.19;;;10.37
20490;BMP280;10403;54.092;12.122;2024-03-23T12:53:08;100448.25;;;10.31
20490;BMP280;10403;54.092;12.122;2024-03-23T12:55:35;100438.81;;;10.24
20490;BMP280;10403;54.092;12.122;2024-03-23T12:58:02;100416.25;;;10.18
20490;BMP280;10403;54.092;12.122;2024-03-23T13:00:29;100418.88;;;10.17
20490;BMP280;10403;54.092;12.122;2024-03-23T13:02:55;100437.94;;;10.23
20490;BMP280;10403;54.092;12.122;2024-03-23T13:05:21;100429.97;;;10.29
20490;BMP280;10403;54.092;12.122;2024-03-23T13:07:48;100426.38;;;10.38
20490;BMP280;10403;54.092;12.122;2024-03-23T13:10:14;100427.19;;;10.38
20490;BMP280;10403;54.092;12.122;2024-03-23T13:12:42;100424.69;;;10.34
20490;BMP280;10403;54.092;12.122;2024-03-23T13:15:09;100413.59;;;10.20
20490;BMP280;10403;54.092;12.122;2024-03-23T13:17:35;100424.94;;;10.19
20490;BMP280;10403;54.092;12.122;2024-03-23T13:20:01;100427.63;;;10.13
20490;BMP280;10403;54.092;12.122;2024-03-23T13:22:29;100455.47;;;10.17
20490;BMP280;10403;54.092;12.122;2024-03-23T13:24:56;100468.56;;;10.14
20490;BMP280;10403;54.092;12.122;2024-03-23T13:27:22;100441.75;;;10.02
20490;BMP280;10403;54.092;12.122;2024-03-23T13:29:48;100434.75;;;10.05
20490;BMP280;10403;54.092;12.122;2024-03-23T13:32:15;100442.63;;;10.01
20490;BMP280;10403;54.092;12.122;2024-03-23T13:34:41;100443.47;;;10.03
20490;BMP280;10403;54.092;12.122;2024-03-23T13:37:07;100452.88;;;10.14
20490;BMP280;10403;54.092;12.122;2024-03-23T13:39:33;100454.50;;;10.22
20490;BMP280;10403;54.092;12.122;2024-03-23T13:42:00;100440.41;;;10.31
20490;BMP280;10403;54.092;12.122;2024-03-23T13:44:26;100441.19;;;10.37
20490;BMP280;10403;54.092;12.122;2024-03-23T13:46:52;100446.16;;;10.50
20490;BMP280;10403;54.092;12.122;2024-03-23T13:49:30;100443.38;;;10.59
20490;BMP280;10403;54.092;12.122;2024-03-23T13:51:58;100425.03;;;10.60
20490;BMP280;10403;54.092;12.122;2024-03-23T13:54:28;100410.22;;;10.61
20490;BMP280;10403;54.092;12.122;2024-03-23T13:56:55;100408.38;;;10.66
20490;BMP280;10403;54.092;12.122;2024-03-23T13:59:22;100403.22;;;10.63
20490;BMP280;10403;54.092;12.122;2024-03-23T14:01:51;100410.13;;;10.65
20490;BMP280;10403;54.092;12.122;2024-03-23T14:04:18;100416.19;;;10.67
20490;BMP280;10403;54.092;12.122;2024-03-23T14:06:47;100413.53;;;10.69
20490;BMP280;10403;54.092;12.122;2024-03-23T14:09:14;100406.53;;;10.71
20490;BMP280;10403;54.092;12.122;2024-03-23T14:11:44;100367.69;;;10.51
20490;BMP280;10403;54.092;12.122;2024-03-23T14:14:10;100413.34;;;10.78
20490;BMP280;10403;54.092;12.122;2024-03-23T14:16:36;100417.69;;;10.79
20490;BMP280;10403;54.092;12.122;2024-03-23T14:19:02;100410.72;;;10.80
20490;BMP280;10403;54.092;12.122;2024-03-23T14:21:31;100414.16;;;10.82
20490;BMP280;10403;54.092;12.122;2024-03-23T14:23:57;100413.28;;;10.83
20490;BMP280;10403;54.092;12.122;2024-03-23T14:26:23;100410.59;;;10.86
20490;BMP280;10403;54.092;12.122;2024-03-23T14:28:50;100409.59;;;10.91
20490;BMP280;10403;54.092;12.122;2024-03-23T14:31:16;100420.78;;;10.98
20490;BMP280;10403;54.092;12.122;2024-03-23T14:33:43;100415.41;;;11.05
20490;BMP280;10403;54.092;12.122;2024-03-23T14:36:14;100410.00;;;11.13
20490;BMP280;10403;54.092;12.122;2024-03-23T14:38:40;100412.59;;;11.15
20490;BMP280;10403;54.092;12.122;2024-03-23T14:41:06;100403.00;;;11.15
20490;BMP280;10403;54.092;12.122;2024-03-23T14:43:33;100411.78;;;11.11
20490;BMP280;10403;54.092;12.122;2024-03-23T14:46:19;100417.19;;;11.03
20490;BMP280;10403;54.092;12.122;2024-03-23T14:48:46;100471.41;;;10.97
20490;BMP280;10403;54.092;12.122;2024-03-23T14:51:12;100465.56;;;10.84
20490;BMP280;10403;54.092;12.122;2024-03-23T14:53:41;100472.06;;;10.65